sensor_id;sensor_type;location;lat;lon;timestamp;temperature;humidity
49222;DHT22;35047;37.588;-122.048;2023-05-10T00:01:08;25.90;52.30
49222;DHT22;35047;37.588;-122.048;2023-05-10T00:03:34;25.90;52.30
49222;DHT22;35047;37.588;-122.048;2023-05-10T00:06:01;25.90;52.50
49222;DHT22;35047;37.588;-122.048;2023-05-10T00:08:27;25.80;52.90
49222;DHT22;35047;37.588;-122.048;2023-05-10T00:10:54;25.80;52.20
49222;DHT22;35047;37.588;-122.048;2023-05-10T00:13:21;25.80;51.80
49222;DHT22;35047;37.588;-122.048;2023-05-10T00:15:48;25.70;52.60
49222;DHT22;35047;37.588;-122.048;2023-05-10T00:18:14;25.60;52.00
49222;DHT22;35047;37.588;-122.048;2023-05-10T00:20:40;25.50;53.20
49222;DHT22;35047;37.588;-122.048;2023-05-10T00:23:07;25.30;53.20
49222;DHT22;35047;37.588;-122.048;2023-05-10T00:25:33;25.40;53.80
49222;DHT22;35047;37.588;-122.048;2023-05-10T00:28:00;25.30;54.00
49222;DHT22;35047;37.588;-122.048;2023-05-10T00:30:27;25.20;54.20
49222;DHT22;35047;37.588;-122.048;2023-05-10T00:32:54;25.20;54.10
49222;DHT22;35047;37.588;-122.048;2023-05-10T00:35:20;25.10;54.20
49222;DHT22;35047;37.588;-122.048;2023-05-10T00:37:47;25.10;54.30
49222;DHT22;35047;37.588;-122.048;2023-05-10T00:40:14;24.90;54.60
49222;DHT22;35047;37.588;-122.048;2023-05-10T00:42:40;24.70;54.40
49222;DHT22;35047;37.588;-122.048;2023-05-10T00:45:07;24.40;55.00
49222;DHT22;35047;37.588;-122.048;2023-05-10T00:47:34;24.10;55.40
49222;DHT22;35047;37.588;-122.048;2023-05-10T00:50:02;24.00;55.70
49222;DHT22;35047;37.588;-122.048;2023-05-10T00:52:29;24.00;56.20
49222;DHT22;35047;37.588;-122.048;2023-05-10T00:54:55;24.10;55.40
49222;DHT22;35047;37.588;-122.048;2023-05-10T00:57:23;24.10;55.60
49222;DHT22;35047;37.588;-122.048;2023-05-10T00:59:49;24.10;55.90
49222;DHT22;35047;37.588;-122.048;2023-05-10T01:02:17;23.90;55.70
49222;DHT22;35047;37.588;-122.048;2023-05-10T01:04:44;24.00;55.40
49222;DHT22;35047;37.588;-122.048;2023-05-10T01:07:10;23.90;56.40
49222;DHT22;35047;37.588;-122.048;2023-05-10T01:09:38;23.90;56.40
49222;DHT22;35047;37.588;-122.048;2023-05-10T01:12:05;23.80;56.60
49222;DHT22;35047;37.588;-122.048;2023-05-10T01:14:33;23.80;57.10
49222;DHT22;35047;37.588;-122.048;2023-05-10T01:17:02;23.90;56.70
49222;DHT22;35047;37.588;-122.048;2023-05-10T01:19:31;24.00;56.50
49222;DHT22;35047;37.588;-122.048;2023-05-10T01:38:47;23.90;55.70
49222;DHT22;35047;37.588;-122.048;2023-05-10T01:46:39;23.10;58.10
49222;DHT22;35047;37.588;-122.048;2023-05-10T01:49:25;22.90;58.50
49222;DHT22;35047;37.588;-122.048;2023-05-10T01:51:54;22.70;59.40
49222;DHT22;35047;37.588;-122.048;2023-05-10T01:54:25;22.50;60.20
49222;DHT22;35047;37.588;-122.048;2023-05-10T01:56:57;22.40;60.40
49222;DHT22;35047;37.588;-122.048;2023-05-10T01:59:30;22.20;61.10
49222;DHT22;35047;37.588;-122.048;2023-05-10T02:01:59;22.20;61.90
49222;DHT22;35047;37.588;-122.048;2023-05-10T02:04:27;22.20;61.50
49222;DHT22;35047;37.588;-122.048;2023-05-10T02:06:55;22.10;61.80
49222;DHT22;35047;37.588;-122.048;2023-05-10T02:09:23;22.00;61.60
49222;DHT22;35047;37.588;-122.048;2023-05-10T02:11:51;22.00;61.40
49222;DHT22;35047;37.588;-122.048;2023-05-10T02:14:19;22.00;61.20
49222;DHT22;35047;37.588;-122.048;2023-05-10T02:16:46;22.00;61.60
49222;DHT22;35047;37.588;-122.048;2023-05-10T02:19:14;21.90;62.10
49222;DHT22;35047;37.588;-122.048;2023-05-10T02:21:42;21.80;62.10
49222;DHT22;35047;37.588;-122.048;2023-05-10T02:24:11;21.60;62.20
49222;DHT22;35047;37.588;-122.048;2023-05-10T02:26:38;21.50;62.50
49222;DHT22;35047;37.588;-122.048;2023-05-10T02:29:07;21.40;62.90
49222;DHT22;35047;37.588;-122.048;2023-05-10T02:31:35;21.30;63.00
49222;DHT22;35047;37.588;-122.048;2023-05-10T02:34:03;21.20;63.50
49222;DHT22;35047;37.588;-122.048;2023-05-10T02:36:30;21.10;63.50
49222;DHT22;35047;37.588;-122.048;2023-05-10T02:38:57;21.00;64.10
49222;DHT22;35047;37.588;-122.048;2023-05-10T02:41:25;20.90;64.30
49222;DHT22;35047;37.588;-122.048;2023-05-10T02:43:55;20.90;64.50
49222;DHT22;35047;37.588;-122.048;2023-05-10T02:46:22;20.80;64.90
49222;DHT22;35047;37.588;-122.048;2023-05-10T02:48:49;20.70;64.90
49222;DHT22;35047;37.588;-122.048;2023-05-10T02:51:18;20.60;64.70
49222;DHT22;35047;37.588;-122.048;2023-05-10T02:53:47;20.50;64.50
49222;DHT22;35047;37.588;-122.048;2023-05-10T02:56:23;20.40;64.90
49222;DHT22;35047;37.588;-122.048;2023-05-10T02:58:52;20.40;65.20
49222;DHT22;35047;37.588;-122.048;2023-05-10T03:01:18;20.30;65.60
49222;DHT22;35047;37.588;-122.048;2023-05-10T03:03:45;20.30;65.50
49222;DHT22;35047;37.588;-122.048;2023-05-10T03:06:11;20.20;65.80
49222;DHT22;35047;37.588;-122.048;2023-05-10T03:08:38;20.20;66.20
49222;DHT22;35047;37.588;-122.048;2023-05-10T03:14:07;20.10;67.00
49222;DHT22;35047;37.588;-122.048;2023-05-10T03:16:45;20.10;67.30
49222;DHT22;35047;37.588;-122.048;2023-05-10T03:19:29;20.40;67.00
49222;DHT22;35047;37.588;-122.048;2023-05-10T03:21:59;20.40;66.90
49222;DHT22;35047;37.588;-122.048;2023-05-10T03:24:30;20.20;67.80
49222;DHT22;35047;37.588;-122.048;2023-05-10T03:26:59;20.20;67.60
49222;DHT22;35047;37.588;-122.048;2023-05-10T03:29:29;20.10;68.00
49222;DHT22;35047;37.588;-122.048;2023-05-10T03:32:01;20.00;68.30
49222;DHT22;35047;37.588;-122.048;2023-05-10T03:34:30;19.90;68.50
49222;DHT22;35047;37.588;-122.048;2023-05-10T03:36:57;19.80;69.00
49222;DHT22;35047;37.588;-122.048;2023-05-10T03:39:24;19.70;69.30
49222;DHT22;35047;37.588;-122.048;2023-05-10T03:41:50;19.60;69.50
49222;DHT22;35047;37.588;-122.048;2023-05-10T03:44:17;19.60;69.60
49222;DHT22;35047;37.588;-122.048;2023-05-10T03:46:43;19.60;69.70
49222;DHT22;35047;37.588;-122.048;2023-05-10T03:49:10;19.50;70.10
49222;DHT22;35047;37.588;-122.048;2023-05-10T03:51:36;19.40;70.20
49222;DHT22;35047;37.588;-122.048;2023-05-10T03:54:04;19.30;70.40
49222;DHT22;35047;37.588;-122.048;2023-05-10T03:56:30;19.30;70.40
49222;DHT22;35047;37.588;-122.048;2023-05-10T03:58:57;19.40;70.50
49222;DHT22;35047;37.588;-122.048;2023-05-10T04:01:23;19.30;70.70
49222;DHT22;35047;37.588;-122.048;2023-05-10T04:03:50;19.30;70.70
49222;DHT22;35047;37.588;-122.048;2023-05-10T04:06:16;19.30;70.80
49222;DHT22;35047;37.588;-122.048;2023-05-10T04:08:43;19.30;71.00
49222;DHT22;35047;37.588;-122.048;2023-05-10T04:11:11;19.30;71.30
49222;DHT22;35047;37.588;-122.048;2023-05-10T04:13:37;19.30;71.40
49222;DHT22;35047;37.588;-122.048;2023-05-10T04:16:04;19.30;71.30
49222;DHT22;35047;37.588;-122.048;2023-05-10T04:18:31;19.30;71.00
49222;DHT22;35047;37.588;-122.048;2023-05-10T04:20:57;19.20;71.00
49222;DHT22;35047;37.588;-122.048;2023-05-10T04:23:24;19.10;71.70
49222;DHT22;35047;37.588;-122.048;2023-05-10T04:25:50;19.10;71.70
49222;DHT22;35047;37.588;-122.048;2023-05-10T04:28:17;19.10;71.60
49222;DHT22;35047;37.588;-122.048;2023-05-10T04:30:44;19.10;71.60
49222;DHT22;35047;37.588;-122.048;2023-05-10T04:33:10;19.10;71.70
49222;DHT22;35047;37.588;-122.048;2023-05-10T04:35:36;19.10;72.10
49222;DHT22;35047;37.588;-122.048;2023-05-10T04:38:03;19.10;71.90
49222;DHT22;35047;37.588;-122.048;2023-05-10T04:40:29;19.00;71.90
49222;DHT22;35047;37.588;-122.048;2023-05-10T04:42:56;18.80;72.50
49222;DHT22;35047;37.588;-122.048;2023-05-10T04:45:22;18.80;73.00
49222;DHT22;35047;37.588;-122.048;2023-05-10T04:47:49;18.80;73.30
49222;DHT22;35047;37.588;-122.048;2023-05-10T04:50:15;18.70;73.30
49222;DHT22;35047;37.588;-122.048;2023-05-10T04:52:43;18.60;73.30
49222;DHT22;35047;37.588;-122.048;2023-05-10T04:55:09;18.60;73.80
49222;DHT22;35047;37.588;-122.048;2023-05-10T04:57:36;18.50;74.10
49222;DHT22;35047;37.588;-122.048;2023-05-10T05:00:02;18.60;74.30
49222;DHT22;35047;37.588;-122.048;2023-05-10T05:02:29;18.60;74.60
49222;DHT22;35047;37.588;-122.048;2023-05-10T05:04:56;18.50;74.50
49222;DHT22;35047;37.588;-122.048;2023-05-10T05:07:23;18.50;74.50
49222;DHT22;35047;37.588;-122.048;2023-05-10T05:09:50;18.60;74.80
49222;DHT22;35047;37.588;-122.048;2023-05-10T05:12:16;18.60;74.70
49222;DHT22;35047;37.588;-122.048;2023-05-10T05:14:43;18.60;74.70
49222;DHT22;35047;37.588;-122.048;2023-05-10T05:17:09;18.60;74.60
49222;DHT22;35047;37.588;-122.048;2023-05-10T05:19:36;18.60;74.40
49222;DHT22;35047;37.588;-122.048;2023-05-10T05:22:02;18.50;74.20
49222;DHT22;35047;37.588;-122.048;2023-05-10T05:24:29;18.50;74.30
49222;DHT22;35047;37.588;-122.048;2023-05-10T05:26:55;18.40;74.20
49222;DHT22;35047;37.588;-122.048;2023-05-10T05:29:22;18.30;74.20
49222;DHT22;35047;37.588;-122.048;2023-05-10T05:31:48;18.40;74.80
49222;DHT22;35047;37.588;-122.048;2023-05-10T05:34:15;18.40;74.70
49222;DHT22;35047;37.588;-122.048;2023-05-10T05:36:41;18.40;74.70
49222;DHT22;35047;37.588;-122.048;2023-05-10T05:39:08;18.40;74.90
49222;DHT22;35047;37.588;-122.048;2023-05-10T05:41:34;18.30;75.00
49222;DHT22;35047;37.588;-122.048;2023-05-10T05:44:01;18.30;74.80
49222;DHT22;35047;37.588;-122.048;2023-05-10T05:46:27;18.30;75.40
49222;DHT22;35047;37.588;-122.048;2023-05-10T05:48:53;18.30;75.30
49222;DHT22;35047;37.588;-122.048;2023-05-10T05:51:20;18.30;75.00
49222;DHT22;35047;37.588;-122.048;2023-05-10T05:53:50;18.30;74.60
49222;DHT22;35047;37.588;-122.048;2023-05-10T05:56:16;18.30;74.60
49222;DHT22;35047;37.588;-122.048;2023-05-10T05:58:50;18.30;74.80
49222;DHT22;35047;37.588;-122.048;2023-05-10T06:01:17;18.30;75.10
49222;DHT22;35047;37.588;-122.048;2023-05-10T06:03:43;18.20;74.80
49222;DHT22;35047;37.588;-122.048;2023-05-10T06:06:10;18.20;75.30
49222;DHT22;35047;37.588;-122.048;2023-05-10T06:08:36;18.10;75.50
49222;DHT22;35047;37.588;-122.048;2023-05-10T06:11:02;18.10;75.50
49222;DHT22;35047;37.588;-122.048;2023-05-10T06:13:30;18.10;75.40
49222;DHT22;35047;37.588;-122.048;2023-05-10T06:16:01;18.10;75.30
49222;DHT22;35047;37.588;-122.048;2023-05-10T06:18:28;18.00;75.60
49222;DHT22;35047;37.588;-122.048;2023-05-10T06:20:54;18.10;76.00
49222;DHT22;35047;37.588;-122.048;2023-05-10T06:23:21;18.20;75.60
49222;DHT22;35047;37.588;-122.048;2023-05-10T06:25:48;18.20;75.20
49222;DHT22;35047;37.588;-122.048;2023-05-10T06:28:14;18.20;74.90
49222;DHT22;35047;37.588;-122.048;2023-05-10T06:30:41;18.20;75.10
49222;DHT22;35047;37.588;-122.048;2023-05-10T06:33:07;18.20;75.10
49222;DHT22;35047;37.588;-122.048;2023-05-10T06:35:34;18.20;75.20
49222;DHT22;35047;37.588;-122.048;2023-05-10T06:38:00;18.00;74.50
49222;DHT22;35047;37.588;-122.048;2023-05-10T06:40:27;18.00;75.60
49222;DHT22;35047;37.588;-122.048;2023-05-10T06:42:54;18.10;75.20
49222;DHT22;35047;37.588;-122.048;2023-05-10T06:45:20;18.10;75.20
49222;DHT22;35047;37.588;-122.048;2023-05-10T06:47:47;18.20;75.00
49222;DHT22;35047;37.588;-122.048;2023-05-10T06:50:14;18.10;74.80
49222;DHT22;35047;37.588;-122.048;2023-05-10T06:52:41;18.20;74.70
49222;DHT22;35047;37.588;-122.048;2023-05-10T06:55:07;18.20;74.70
49222;DHT22;35047;37.588;-122.048;2023-05-10T06:57:34;18.20;74.60
49222;DHT22;35047;37.588;-122.048;2023-05-10T07:00:02;18.20;74.40
49222;DHT22;35047;37.588;-122.048;2023-05-10T07:02:30;18.20;74.10
49222;DHT22;35047;37.588;-122.048;2023-05-10T07:04:56;18.20;74.00
49222;DHT22;35047;37.588;-122.048;2023-05-10T07:07:23;18.20;74.30
49222;DHT22;35047;37.588;-122.048;2023-05-10T07:09:49;18.10;74.10
49222;DHT22;35047;37.588;-122.048;2023-05-10T07:12:17;18.20;73.90
49222;DHT22;35047;37.588;-122.048;2023-05-10T07:14:43;18.20;73.90
49222;DHT22;35047;37.588;-122.048;2023-05-10T07:17:18;18.20;73.80
49222;DHT22;35047;37.588;-122.048;2023-05-10T07:19:44;18.10;74.00
49222;DHT22;35047;37.588;-122.048;2023-05-10T07:22:12;18.10;73.90
49222;DHT22;35047;37.588;-122.048;2023-05-10T07:24:38;18.10;73.90
49222;DHT22;35047;37.588;-122.048;2023-05-10T07:27:05;18.10;73.70
49222;DHT22;35047;37.588;-122.048;2023-05-10T07:29:33;18.10;73.60
49222;DHT22;35047;37.588;-122.048;2023-05-10T07:31:59;18.20;73.50
49222;DHT22;35047;37.588;-122.048;2023-05-10T07:34:26;18.10;73.70
49222;DHT22;35047;37.588;-122.048;2023-05-10T07:36:52;18.20;73.60
49222;DHT22;35047;37.588;-122.048;2023-05-10T07:39:19;18.20;73.50
49222;DHT22;35047;37.588;-122.048;2023-05-10T07:41:48;18.10;74.30
49222;DHT22;35047;37.588;-122.048;2023-05-10T07:44:18;18.20;73.90
49222;DHT22;35047;37.588;-122.048;2023-05-10T07:46:46;18.20;73.30
49222;DHT22;35047;37.588;-122.048;2023-05-10T07:49:13;18.20;73.10
49222;DHT22;35047;37.588;-122.048;2023-05-10T07:51:40;18.20;73.30
49222;DHT22;35047;37.588;-122.048;2023-05-10T07:54:08;18.10;73.10
49222;DHT22;35047;37.588;-122.048;2023-05-10T07:56:35;18.20;72.70
49222;DHT22;35047;37.588;-122.048;2023-05-10T07:59:03;18.20;72.60
49222;DHT22;35047;37.588;-122.048;2023-05-10T08:01:31;18.20;72.80
49222;DHT22;35047;37.588;-122.048;2023-05-10T08:04:01;18.10;73.00
49222;DHT22;35047;37.588;-122.048;2023-05-10T08:06:28;18.10;72.90
49222;DHT22;35047;37.588;-122.048;2023-05-10T08:08:56;18.10;72.20
49222;DHT22;35047;37.588;-122.048;2023-05-10T08:11:23;18.10;73.00
49222;DHT22;35047;37.588;-122.048;2023-05-10T08:13:50;18.10;73.10
49222;DHT22;35047;37.588;-122.048;2023-05-10T08:16:18;18.10;72.90
49222;DHT22;35047;37.588;-122.048;2023-05-10T08:18:44;18.10;73.00
49222;DHT22;35047;37.588;-122.048;2023-05-10T08:21:11;18.00;73.50
49222;DHT22;35047;37.588;-122.048;2023-05-10T08:23:38;17.90;73.10
49222;DHT22;35047;37.588;-122.048;2023-05-10T08:26:04;18.00;73.40
49222;DHT22;35047;37.588;-122.048;2023-05-10T08:28:31;18.00;73.40
49222;DHT22;35047;37.588;-122.048;2023-05-10T08:30:57;18.00;72.90
49222;DHT22;35047;37.588;-122.048;2023-05-10T08:33:24;17.80;72.10
49222;DHT22;35047;37.588;-122.048;2023-05-10T08:35:50;17.80;72.90
49222;DHT22;35047;37.588;-122.048;2023-05-10T08:38:18;17.70;72.40
49222;DHT22;35047;37.588;-122.048;2023-05-10T08:40:45;17.80;73.30
49222;DHT22;35047;37.588;-122.048;2023-05-10T08:43:12;17.90;73.10
49222;DHT22;35047;37.588;-122.048;2023-05-10T08:45:43;17.80;72.50
49222;DHT22;35047;37.588;-122.048;2023-05-10T08:48:11;17.90;72.80
49222;DHT22;35047;37.588;-122.048;2023-05-10T08:50:39;17.80;72.10
49222;DHT22;35047;37.588;-122.048;2023-05-10T08:53:15;17.90;73.10
49222;DHT22;35047;37.588;-122.048;2023-05-10T08:55:42;18.00;73.10
49222;DHT22;35047;37.588;-122.048;2023-05-10T08:58:09;18.00;73.10
49222;DHT22;35047;37.588;-122.048;2023-05-10T09:00:36;18.00;72.60
49222;DHT22;35047;37.588;-122.048;2023-05-10T09:03:05;18.00;72.50
49222;DHT22;35047;37.588;-122.048;2023-05-10T09:05:33;18.00;72.50
49222;DHT22;35047;37.588;-122.048;2023-05-10T09:07:59;18.10;72.80
49222;DHT22;35047;37.588;-122.048;2023-05-10T09:10:30;18.10;72.30
49222;DHT22;35047;37.588;-122.048;2023-05-10T09:12:57;17.90;71.30
49222;DHT22;35047;37.588;-122.048;2023-05-10T09:15:24;17.90;73.00
49222;DHT22;35047;37.588;-122.048;2023-05-10T09:17:50;18.00;72.60
49222;DHT22;35047;37.588;-122.048;2023-05-10T09:20:17;17.70;71.30
49222;DHT22;35047;37.588;-122.048;2023-05-10T09:22:43;17.70;73.20
49222;DHT22;35047;37.588;-122.048;2023-05-10T09:25:12;17.70;73.00
49222;DHT22;35047;37.588;-122.048;2023-05-10T09:27:40;17.80;72.80
49222;DHT22;35047;37.588;-122.048;2023-05-10T09:30:08;17.50;72.20
49222;DHT22;35047;37.588;-122.048;2023-05-10T09:32:42;17.60;73.80
49222;DHT22;35047;37.588;-122.048;2023-05-10T09:35:17;17.80;72.90
49222;DHT22;35047;37.588;-122.048;2023-05-10T09:37:47;17.70;72.90
49222;DHT22;35047;37.588;-122.048;2023-05-10T09:40:15;17.70;72.80
49222;DHT22;35047;37.588;-122.048;2023-05-10T09:42:50;17.70;72.90
49222;DHT22;35047;37.588;-122.048;2023-05-10T09:45:17;17.80;72.70
49222;DHT22;35047;37.588;-122.048;2023-05-10T09:47:45;17.70;73.00
49222;DHT22;35047;37.588;-122.048;2023-05-10T09:50:12;17.80;72.70
49222;DHT22;35047;37.588;-122.048;2023-05-10T09:55:20;17.70;73.40
49222;DHT22;35047;37.588;-122.048;2023-05-10T09:57:48;17.80;73.50
49222;DHT22;35047;37.588;-122.048;2023-05-10T10:00:20;17.80;73.10
49222;DHT22;35047;37.588;-122.048;2023-05-10T10:03:18;17.80;73.60
49222;DHT22;35047;37.588;-122.048;2023-05-10T10:05:45;17.80;73.40
49222;DHT22;35047;37.588;-122.048;2023-05-10T10:08:13;17.80;73.60
49222;DHT22;35047;37.588;-122.048;2023-05-10T10:10:41;17.70;72.30
49222;DHT22;35047;37.588;-122.048;2023-05-10T10:13:10;17.70;74.10
49222;DHT22;35047;37.588;-122.048;2023-05-10T10:15:36;17.80;74.00
49222;DHT22;35047;37.588;-122.048;2023-05-10T10:18:03;17.80;74.00
49222;DHT22;35047;37.588;-122.048;2023-05-10T10:20:31;17.80;74.00
49222;DHT22;35047;37.588;-122.048;2023-05-10T10:22:58;17.80;74.30
49222;DHT22;35047;37.588;-122.048;2023-05-10T10:25:25;17.80;73.20
49222;DHT22;35047;37.588;-122.048;2023-05-10T10:35:58;17.60;73.90
49222;DHT22;35047;37.588;-122.048;2023-05-10T10:38:25;17.60;74.10
49222;DHT22;35047;37.588;-122.048;2023-05-10T10:41:10;17.60;74.60
49222;DHT22;35047;37.588;-122.048;2023-05-10T10:43:37;17.30;73.60
49222;DHT22;35047;37.588;-122.048;2023-05-10T10:46:15;17.20;73.80
49222;DHT22;35047;37.588;-122.048;2023-05-10T10:48:50;17.40;74.80
49222;DHT22;35047;37.588;-122.048;2023-05-10T10:51:18;17.40;74.70
49222;DHT22;35047;37.588;-122.048;2023-05-10T10:53:44;17.40;74.80
49222;DHT22;35047;37.588;-122.048;2023-05-10T10:56:13;17.50;74.00
49222;DHT22;35047;37.588;-122.048;2023-05-10T10:58:42;17.60;74.80
49222;DHT22;35047;37.588;-122.048;2023-05-10T11:01:17;17.50;74.20
49222;DHT22;35047;37.588;-122.048;2023-05-10T11:06:36;17.50;75.30
49222;DHT22;35047;37.588;-122.048;2023-05-10T11:09:07;17.50;74.60
49222;DHT22;35047;37.588;-122.048;2023-05-10T11:11:35;17.40;73.80
49222;DHT22;35047;37.588;-122.048;2023-05-10T11:14:06;17.20;74.60
49222;DHT22;35047;37.588;-122.048;2023-05-10T11:16:43;17.40;75.10
49222;DHT22;35047;37.588;-122.048;2023-05-10T11:19:12;17.40;74.90
49222;DHT22;35047;37.588;-122.048;2023-05-10T11:22:13;17.50;74.80
49222;DHT22;35047;37.588;-122.048;2023-05-10T11:24:39;17.60;74.60
49222;DHT22;35047;37.588;-122.048;2023-05-10T11:27:06;17.60;74.40
49222;DHT22;35047;37.588;-122.048;2023-05-10T11:29:32;17.70;74.50
49222;DHT22;35047;37.588;-122.048;2023-05-10T11:32:00;17.40;73.30
49222;DHT22;35047;37.588;-122.048;2023-05-10T11:34:29;17.10;73.50
49222;DHT22;35047;37.588;-122.048;2023-05-10T11:37:01;17.10;74.20
49222;DHT22;35047;37.588;-122.048;2023-05-10T11:39:29;17.20;75.50
49222;DHT22;35047;37.588;-122.048;2023-05-10T11:41:57;17.20;75.10
49222;DHT22;35047;37.588;-122.048;2023-05-10T11:44:32;17.20;74.70
49222;DHT22;35047;37.588;-122.048;2023-05-10T11:47:02;17.00;75.60
49222;DHT22;35047;37.588;-122.048;2023-05-10T11:49:29;16.90;75.30
49222;DHT22;35047;37.588;-122.048;2023-05-10T11:52:08;17.00;76.60
49222;DHT22;35047;37.588;-122.048;2023-05-10T11:54:34;16.80;75.70
49222;DHT22;35047;37.588;-122.048;2023-05-10T11:57:01;16.90;76.20
49222;DHT22;35047;37.588;-122.048;2023-05-10T11:59:27;17.00;76.40
49222;DHT22;35047;37.588;-122.048;2023-05-10T12:01:54;17.10;75.80
49222;DHT22;35047;37.588;-122.048;2023-05-10T12:04:21;17.20;75.90
49222;DHT22;35047;37.588;-122.048;2023-05-10T12:06:47;17.20;74.70
49222;DHT22;35047;37.588;-122.048;2023-05-10T12:09:14;17.30;74.40
49222;DHT22;35047;37.588;-122.048;2023-05-10T12:11:41;17.20;74.30
49222;DHT22;35047;37.588;-122.048;2023-05-10T12:14:08;17.30;76.40
49222;DHT22;35047;37.588;-122.048;2023-05-10T12:16:36;17.30;78.30
49222;DHT22;35047;37.588;-122.048;2023-05-10T12:19:02;17.40;77.60
49222;DHT22;35047;37.588;-122.048;2023-05-10T12:21:29;17.30;78.10
49222;DHT22;35047;37.588;-122.048;2023-05-10T12:24:03;17.20;77.10
49222;DHT22;35047;37.588;-122.048;2023-05-10T12:26:31;17.10;75.80
49222;DHT22;35047;37.588;-122.048;2023-05-10T12:29:15;17.20;77.00
49222;DHT22;35047;37.588;-122.048;2023-05-10T12:31:58;17.00;75.60
49222;DHT22;35047;37.588;-122.048;2023-05-10T12:34:32;17.20;79.60
49222;DHT22;35047;37.588;-122.048;2023-05-10T12:36:59;17.10;80.20
49222;DHT22;35047;37.588;-122.048;2023-05-10T12:39:26;17.30;81.60
49222;DHT22;35047;37.588;-122.048;2023-05-10T12:41:52;17.30;82.00
49222;DHT22;35047;37.588;-122.048;2023-05-10T12:44:20;17.40;78.70
49222;DHT22;35047;37.588;-122.048;2023-05-10T12:46:47;17.40;76.50
49222;DHT22;35047;37.588;-122.048;2023-05-10T12:49:13;17.30;75.20
49222;DHT22;35047;37.588;-122.048;2023-05-10T12:51:40;17.30;76.20
49222;DHT22;35047;37.588;-122.048;2023-05-10T12:54:06;17.30;76.60
49222;DHT22;35047;37.588;-122.048;2023-05-10T12:56:33;17.10;76.60
49222;DHT22;35047;37.588;-122.048;2023-05-10T12:58:59;17.20;75.80
49222;DHT22;35047;37.588;-122.048;2023-05-10T13:01:26;17.10;74.90
49222;DHT22;35047;37.588;-122.048;2023-05-10T13:03:52;17.20;74.80
49222;DHT22;35047;37.588;-122.048;2023-05-10T13:06:19;17.20;74.30
49222;DHT22;35047;37.588;-122.048;2023-05-10T13:08:45;17.20;74.70
49222;DHT22;35047;37.588;-122.048;2023-05-10T13:11:12;17.30;76.10
49222;DHT22;35047;37.588;-122.048;2023-05-10T13:13:42;17.30;75.40
49222;DHT22;35047;37.588;-122.048;2023-05-10T13:16:08;17.10;74.40
49222;DHT22;35047;37.588;-122.048;2023-05-10T13:18:35;17.20;75.30
49222;DHT22;35047;37.588;-122.048;2023-05-10T13:21:02;17.10;74.70
49222;DHT22;35047;37.588;-122.048;2023-05-10T13:23:31;17.10;73.80
49222;DHT22;35047;37.588;-122.048;2023-05-10T13:25:57;17.10;75.10
49222;DHT22;35047;37.588;-122.048;2023-05-10T13:28:24;17.10;75.00
49222;DHT22;35047;37.588;-122.048;2023-05-10T13:30:52;17.10;75.20
49222;DHT22;35047;37.588;-122.048;2023-05-10T13:33:18;17.00;74.70
49222;DHT22;35047;37.588;-122.048;2023-05-10T13:35:45;17.00;75.30
49222;DHT22;35047;37.588;-122.048;2023-05-10T13:38:12;17.00;74.40
49222;DHT22;35047;37.588;-122.048;2023-05-10T13:40:39;16.80;73.40
49222;DHT22;35047;37.588;-122.048;2023-05-10T13:43:05;17.00;73.80
49222;DHT22;35047;37.588;-122.048;2023-05-10T13:45:32;16.90;74.30
49222;DHT22;35047;37.588;-122.048;2023-05-10T13:47:59;16.90;74.00
49222;DHT22;35047;37.588;-122.048;2023-05-10T13:50:25;17.00;74.90
49222;DHT22;35047;37.588;-122.048;2023-05-10T13:52:52;16.70;72.90
49222;DHT22;35047;37.588;-122.048;2023-05-10T13:55:19;16.60;74.50
49222;DHT22;35047;37.588;-122.048;2023-05-10T13:57:46;16.90;75.70
49222;DHT22;35047;37.588;-122.048;2023-05-10T14:00:12;16.90;73.70
49222;DHT22;35047;37.588;-122.048;2023-05-10T14:02:40;16.60;72.90
49222;DHT22;35047;37.588;-122.048;2023-05-10T14:05:07;16.30;73.90
49222;DHT22;35047;37.588;-122.048;2023-05-10T14:07:33;16.40;75.50
49222;DHT22;35047;37.588;-122.048;2023-05-10T14:10:00;16.30;73.90
49222;DHT22;35047;37.588;-122.048;2023-05-10T14:12:27;16.60;73.00
49222;DHT22;35047;37.588;-122.048;2023-05-10T14:14:53;17.10;74.20
49222;DHT22;35047;37.588;-122.048;2023-05-10T14:17:20;17.00;71.80
49222;DHT22;35047;37.588;-122.048;2023-05-10T14:19:46;17.10;71.30
49222;DHT22;35047;37.588;-122.048;2023-05-10T14:22:13;17.50;73.50
49222;DHT22;35047;37.588;-122.048;2023-05-10T14:24:39;18.00;71.80
49222;DHT22;35047;37.588;-122.048;2023-05-10T14:27:05;18.30;70.90
49222;DHT22;35047;37.588;-122.048;2023-05-10T14:29:32;18.30;69.90
49222;DHT22;35047;37.588;-122.048;2023-05-10T14:31:59;18.30;69.80
49222;DHT22;35047;37.588;-122.048;2023-05-10T14:34:26;18.30;70.70
49222;DHT22;35047;37.588;-122.048;2023-05-10T14:36:52;18.30;70.60
49222;DHT22;35047;37.588;-122.048;2023-05-10T14:39:20;18.30;69.10
49222;DHT22;35047;37.588;-122.048;2023-05-10T14:41:46;18.30;69.00
49222;DHT22;35047;37.588;-122.048;2023-05-10T14:44:13;17.80;69.20
49222;DHT22;35047;37.588;-122.048;2023-05-10T14:46:41;17.50;68.60
49222;DHT22;35047;37.588;-122.048;2023-05-10T14:49:07;17.20;69.40
49222;DHT22;35047;37.588;-122.048;2023-05-10T14:51:34;17.40;71.40
49222;DHT22;35047;37.588;-122.048;2023-05-10T14:54:02;17.60;71.10
49222;DHT22;35047;37.588;-122.048;2023-05-10T14:56:29;17.70;70.70
49222;DHT22;35047;37.588;-122.048;2023-05-10T14:58:56;17.70;71.20
49222;DHT22;35047;37.588;-122.048;2023-05-10T15:01:23;17.70;71.50
49222;DHT22;35047;37.588;-122.048;2023-05-10T15:03:49;17.50;70.10
49222;DHT22;35047;37.588;-122.048;2023-05-10T15:06:16;17.50;70.90
49222;DHT22;35047;37.588;-122.048;2023-05-10T15:08:43;17.70;71.40
49222;DHT22;35047;37.588;-122.048;2023-05-10T15:11:09;17.10;69.90
49222;DHT22;35047;37.588;-122.048;2023-05-10T15:13:36;16.80;70.90
49222;DHT22;35047;37.588;-122.048;2023-05-10T15:16:02;16.80;72.00
49222;DHT22;35047;37.588;-122.048;2023-05-10T15:18:29;16.80;71.70
49222;DHT22;35047;37.588;-122.048;2023-05-10T15:20:55;16.60;71.40
49222;DHT22;35047;37.588;-122.048;2023-05-10T15:23:22;16.70;72.10
49222;DHT22;35047;37.588;-122.048;2023-05-10T15:25:48;17.10;73.30
49222;DHT22;35047;37.588;-122.048;2023-05-10T15:28:18;17.40;72.70
49222;DHT22;35047;37.588;-122.048;2023-05-10T15:30:45;16.90;71.70